createdAt,value
2022-12-22T00:00:45.544Z,64.60
2022-12-22T00:04:01.588Z,64.70
2022-12-22T00:07:15.621Z,64.70
2022-12-22T00:10:32.282Z,64.40
2022-12-22T00:13:45.562Z,64.50
2022-12-22T00:17:02.748Z,64.70
2022-12-22T00:20:25.332Z,65.40
2022-12-22T00:23:41.332Z,64.60
2022-12-22T00:26:55.549Z,64.20
2022-12-22T00:30:11.823Z,64.70
2022-12-22T00:33:25.557Z,64.50
2022-12-22T00:36:42.523Z,64.00
2022-12-22T00:39:55.627Z,64.60
2022-12-22T00:43:12.197Z,65.00
2022-12-22T00:46:30.956Z,64.90
2022-12-22T00:49:45.630Z,64.80
2022-12-22T00:53:01.569Z,64.50
2022-12-22T00:56:15.546Z,64.90
2022-12-22T00:59:32.121Z,64.60
2022-12-22T01:02:45.681Z,64.90
2022-12-22T01:06:02.044Z,64.60
2022-12-22T01:09:15.606Z,64.80
2022-12-22T01:12:34.042Z,64.70
2022-12-22T01:15:50.714Z,64.80
2022-12-22T01:19:05.612Z,65.00
2022-12-22T01:22:21.953Z,64.90
2022-12-22T01:25:35.603Z,64.60
2022-12-22T01:28:51.540Z,64.30
2022-12-22T01:32:05.640Z,64.80
2022-12-22T01:35:25.611Z,64.20
2022-12-22T01:38:41.590Z,64.60
2022-12-22T01:41:55.598Z,64.80
2022-12-22T01:45:15.036Z,64.90
2022-12-22T01:48:32.293Z,64.80
2022-12-22T01:51:45.648Z,64.70
2022-12-22T01:55:02.096Z,65.10
2022-12-22T01:58:15.620Z,64.70
2022-12-22T02:01:31.817Z,65.10
2022-12-22T02:04:45.643Z,64.40
2022-12-22T02:08:05.630Z,64.90
2022-12-22T02:11:25.659Z,64.60
2022-12-22T02:14:45.409Z,64.90
2022-12-22T02:18:05.194Z,64.60
2022-12-22T02:21:23.687Z,65.00
2022-12-22T02:24:43.739Z,64.90
2022-12-22T02:28:01.210Z,65.00
2022-12-22T02:31:15.675Z,64.80
2022-12-22T02:34:31.667Z,64.30
2022-12-22T02:37:54.865Z,64.80
2022-12-22T02:41:15.646Z,65.00
2022-12-22T02:44:35.635Z,64.70
2022-12-22T02:47:54.955Z,64.70
2022-12-22T02:51:14.524Z,64.80
2022-12-22T02:54:31.610Z,64.90
2022-12-22T02:57:45.706Z,65.30
2022-12-22T03:01:02.595Z,65.00
2022-12-22T03:04:15.669Z,65.10
2022-12-22T03:07:31.597Z,65.10
2022-12-22T03:10:45.670Z,65.00
2022-12-22T03:14:01.596Z,65.10
2022-12-22T03:17:15.665Z,64.90
2022-12-22T03:20:31.596Z,65.00
2022-12-22T03:23:45.767Z,64.80
2022-12-22T03:26:47.224Z,65.00
2022-12-22T03:29:48.487Z,65.40
2022-12-22T03:32:50.282Z,65.10
2022-12-22T03:35:51.742Z,64.40
2022-12-22T03:38:53.026Z,65.00
2022-12-22T03:42:05.667Z,65.00
2022-12-22T03:45:23.040Z,65.00
2022-12-22T03:48:25.006Z,64.70
2022-12-22T03:51:26.216Z,65.00
2022-12-22T03:54:27.546Z,65.00
2022-12-22T03:57:29.059Z,64.80
2022-12-22T04:00:30.337Z,65.40
2022-12-22T04:03:32.271Z,65.00
2022-12-22T04:06:33.638Z,65.00
2022-12-22T04:09:34.859Z,64.80
2022-12-22T04:12:50.782Z,65.00
2022-12-22T04:15:52.008Z,65.00
2022-12-22T04:18:53.797Z,65.50
2022-12-22T04:21:55.139Z,65.10
2022-12-22T04:24:56.469Z,64.70
2022-12-22T04:27:57.977Z,65.10
2022-12-22T04:30:59.326Z,65.30
2022-12-22T04:34:01.123Z,64.30
2022-12-22T04:37:11.443Z,64.70
2022-12-22T04:40:17.865Z,65.10
2022-12-22T04:43:19.185Z,64.80
2022-12-22T04:46:20.540Z,65.10
2022-12-22T04:49:22.425Z,64.80
2022-12-22T04:52:23.667Z,65.10
2022-12-22T04:55:25.014Z,64.90
2022-12-22T04:58:26.636Z,64.90
2022-12-22T05:01:27.995Z,65.20
2022-12-22T05:04:29.962Z,65.10
2022-12-22T05:07:31.201Z,64.80
2022-12-22T05:10:32.469Z,65.00
2022-12-22T05:13:34.271Z,64.80
2022-12-22T05:16:35.558Z,64.70
2022-12-22T05:19:37.550Z,64.90
2022-12-22T05:22:38.936Z,64.90
2022-12-22T05:25:41.021Z,64.90
2022-12-22T05:28:42.786Z,65.00
2022-12-22T05:31:47.305Z,64.60
2022-12-22T05:34:49.486Z,64.20
2022-12-22T05:37:50.742Z,64.70
2022-12-22T05:40:52.091Z,64.80
2022-12-22T05:43:53.378Z,65.00
2022-12-22T05:46:54.788Z,64.90
2022-12-22T05:49:56.624Z,65.10
2022-12-22T05:52:58.253Z,64.90
2022-12-22T05:55:59.610Z,64.80
2022-12-22T05:59:00.940Z,65.00
2022-12-22T06:02:02.367Z,64.70
2022-12-22T06:05:04.702Z,64.90
2022-12-22T06:08:06.005Z,64.70
2022-12-22T06:11:07.233Z,64.50
2022-12-22T06:14:08.554Z,64.80
2022-12-22T06:17:09.909Z,64.80
2022-12-22T06:20:12.285Z,65.20
2022-12-22T06:23:13.583Z,64.40
2022-12-22T06:26:15.096Z,65.00
2022-12-22T06:29:16.396Z,64.90
2022-12-22T06:32:17.854Z,64.80
2022-12-22T06:35:19.762Z,64.00
2022-12-22T06:38:21.047Z,64.90
2022-12-22T06:41:36.969Z,64.80
2022-12-22T06:44:38.306Z,64.80
2022-12-22T06:47:39.634Z,64.70
2022-12-22T06:50:41.473Z,65.10
2022-12-22T06:53:42.730Z,64.80
2022-12-22T06:56:44.067Z,64.60
2022-12-22T06:59:45.394Z,64.70
2022-12-22T07:02:46.979Z,65.10
2022-12-22T07:05:48.887Z,64.30
2022-12-22T07:08:50.170Z,65.00
2022-12-22T07:11:51.555Z,64.80
2022-12-22T07:14:52.850Z,65.00
2022-12-22T07:17:54.089Z,65.10
2022-12-22T07:20:55.964Z,64.60
2022-12-22T07:23:57.224Z,64.80
2022-12-22T07:26:58.613Z,65.10
2022-12-22T07:29:59.959Z,64.60
2022-12-22T07:33:01.384Z,64.70
2022-12-22T07:36:05.194Z,64.00
2022-12-22T07:39:06.965Z,64.80
2022-12-22T07:42:24.974Z,64.40
2022-12-22T07:45:26.854Z,64.70
2022-12-22T07:48:42.792Z,64.30
2022-12-22T07:51:44.733Z,64.30
2022-12-22T07:54:46.021Z,64.40
2022-12-22T07:57:47.727Z,64.70
2022-12-22T08:00:49.143Z,61.90
2022-12-22T08:03:50.428Z,64.60
2022-12-22T08:06:52.237Z,63.80
2022-12-22T08:09:53.541Z,64.40
2022-12-22T08:12:54.999Z,64.00
2022-12-22T08:16:01.379Z,64.50
2022-12-22T08:19:02.688Z,64.00
2022-12-22T08:22:04.555Z,64.90
2022-12-22T08:25:06.324Z,64.40
2022-12-22T08:28:08.014Z,64.10
2022-12-22T08:31:09.576Z,63.60
2022-12-22T08:34:13.388Z,63.10
2022-12-22T08:37:16.004Z,63.80
2022-12-22T08:40:18.997Z,64.00
2022-12-22T08:43:21.103Z,63.70
2022-12-22T08:46:22.461Z,64.10
2022-12-22T08:49:24.151Z,63.60
2022-12-22T08:52:27.051Z,63.90
2022-12-22T08:55:28.498Z,63.50
2022-12-22T08:58:29.895Z,63.80
2022-12-22T09:01:32.475Z,63.00
2022-12-22T09:04:33.964Z,63.80
2022-12-22T09:07:35.892Z,63.60
2022-12-22T09:10:37.252Z,63.90
2022-12-22T09:13:38.642Z,64.50
2022-12-22T09:16:40.446Z,63.30
2022-12-22T09:19:42.111Z,63.30
2022-12-22T09:22:43.930Z,63.50
2022-12-22T09:25:45.151Z,63.20
2022-12-22T09:28:50.485Z,63.70
2022-12-22T09:31:52.362Z,63.10
2022-12-22T09:34:53.700Z,62.60
2022-12-22T09:37:55.533Z,63.20
2022-12-22T09:40:56.905Z,63.60
2022-12-22T09:44:02.474Z,62.70
2022-12-22T09:47:09.455Z,63.60
2022-12-22T09:50:15.265Z,62.90
2022-12-22T09:53:24.155Z,63.20
2022-12-22T09:56:26.850Z,62.70
2022-12-22T09:59:28.386Z,63.40
2022-12-22T10:02:33.364Z,63.40
2022-12-22T10:05:37.813Z,63.00
2022-12-22T10:08:40.197Z,63.40
2022-12-22T10:11:49.763Z,62.90
2022-12-22T10:14:52.327Z,62.50
2022-12-22T10:18:07.649Z,63.00
2022-12-22T10:21:10.321Z,63.20
2022-12-22T10:24:16.415Z,62.80
2022-12-22T10:27:20.191Z,63.30
2022-12-22T10:30:26.749Z,62.70
2022-12-22T10:33:33.081Z,62.30
2022-12-22T10:36:34.786Z,63.10
2022-12-22T10:39:36.135Z,62.60
2022-12-22T10:42:38.088Z,63.10
2022-12-22T10:45:46.434Z,63.30
2022-12-22T10:48:47.955Z,62.90
2022-12-22T10:51:51.218Z,63.20
2022-12-22T10:54:52.715Z,62.80
2022-12-22T10:58:05.822Z,63.00
2022-12-22T11:01:09.820Z,63.00
2022-12-22T11:04:15.708Z,63.00
2022-12-22T11:07:17.277Z,62.70
2022-12-22T11:10:24.534Z,63.00
2022-12-22T11:13:37.917Z,62.90
2022-12-22T11:16:42.630Z,63.00
2022-12-22T11:19:53.847Z,62.70
2022-12-22T11:22:58.655Z,63.20
2022-12-22T11:26:05.779Z,62.80
2022-12-22T11:29:15.828Z,62.90
2022-12-22T11:32:24.262Z,62.70
2022-12-22T11:35:35.516Z,62.30
2022-12-22T11:38:44.848Z,62.90
2022-12-22T11:41:51.620Z,63.10
2022-12-22T11:45:03.353Z,62.90
2022-12-22T11:48:07.843Z,62.80
2022-12-22T11:51:18.605Z,62.70
2022-12-22T11:54:35.402Z,63.00
2022-12-22T11:57:39.323Z,63.10
2022-12-22T12:01:13.041Z,63.00
2022-12-22T12:04:16.214Z,63.00
2022-12-22T12:07:26.023Z,63.20
2022-12-22T12:10:28.551Z,63.00
2022-12-22T12:13:37.517Z,63.20
2022-12-22T12:16:42.169Z,62.90
2022-12-22T12:19:56.165Z,63.30
2022-12-22T12:23:03.743Z,63.00
2022-12-22T12:26:09.112Z,63.30
2022-12-22T12:29:15.484Z,62.90
2022-12-22T12:32:20.909Z,63.10
2022-12-22T12:35:38.416Z,62.30
2022-12-22T12:42:12.821Z,62.80
2022-12-22T12:45:26.267Z,62.80
2022-12-22T12:48:42.377Z,63.20
2022-12-22T12:51:46.750Z,63.50
2022-12-22T12:54:48.036Z,63.00
2022-12-22T12:57:49.983Z,63.30
2022-12-22T13:00:57.069Z,63.00
2022-12-22T13:04:03.577Z,63.30
2022-12-22T13:07:06.470Z,63.20
2022-12-22T13:10:17.448Z,63.20
2022-12-22T13:13:34.128Z,62.80
2022-12-22T13:16:36.989Z,62.90
2022-12-22T13:19:38.552Z,62.90
2022-12-22T13:22:41.434Z,61.60
2022-12-22T13:25:46.573Z,62.80
2022-12-22T13:28:50.446Z,62.70
2022-12-22T13:31:54.065Z,63.10
2022-12-22T13:38:29.847Z,62.10
2022-12-22T13:41:31.966Z,62.60
2022-12-22T13:44:33.513Z,62.70
2022-12-22T13:47:34.849Z,62.80
2022-12-22T13:50:38.399Z,63.00
2022-12-22T13:57:04.324Z,63.20
2022-12-22T14:00:17.003Z,63.00
2022-12-22T14:03:41.686Z,59.50
2022-12-22T14:06:40.333Z,62.50
2022-12-22T14:09:43.383Z,62.90
2022-12-22T14:12:46.069Z,62.40
2022-12-22T14:15:47.928Z,62.60
2022-12-22T14:18:49.404Z,62.30
2022-12-22T14:21:55.054Z,63.10
2022-12-22T14:24:58.456Z,62.60
2022-12-22T14:27:59.969Z,62.70
2022-12-22T14:31:03.289Z,62.30
2022-12-22T14:34:04.679Z,62.00
2022-12-22T14:37:08.838Z,62.40
2022-12-22T14:40:27.415Z,61.30
2022-12-22T14:43:30.156Z,62.30
2022-12-22T14:46:38.442Z,62.40
2022-12-22T14:49:43.958Z,61.90
2022-12-22T14:52:48.545Z,62.60
2022-12-22T14:55:51.072Z,62.50
2022-12-22T14:59:06.761Z,63.00
2022-12-22T15:02:17.629Z,62.50
2022-12-22T15:05:24.500Z,63.00
2022-12-22T15:08:38.556Z,62.60
2022-12-22T15:11:42.693Z,63.00
2022-12-22T15:14:46.900Z,62.90
2022-12-22T15:17:49.404Z,62.60
2022-12-22T15:20:50.736Z,62.70
2022-12-22T15:23:52.002Z,62.80
2022-12-22T15:26:53.866Z,62.60
2022-12-22T15:29:55.269Z,63.00
2022-12-22T15:32:56.777Z,62.30
2022-12-22T15:35:58.062Z,62.20
2022-12-22T15:38:59.506Z,62.80
2022-12-22T15:42:01.472Z,63.10
2022-12-22T15:45:03.152Z,62.90
2022-12-22T15:48:05.888Z,63.00
2022-12-22T15:51:08.450Z,62.70
2022-12-22T15:54:12.372Z,62.90
2022-12-22T15:57:14.328Z,62.80
2022-12-22T16:00:18.490Z,63.40
2022-12-22T16:03:19.916Z,62.70
2022-12-22T16:06:21.349Z,63.60
2022-12-22T16:09:23.582Z,62.50
2022-12-22T16:12:25.675Z,63.30
2022-12-22T16:15:28.364Z,62.70
2022-12-22T16:18:29.643Z,62.70
2022-12-22T16:21:31.990Z,62.50
2022-12-22T16:24:34.324Z,62.90
2022-12-22T16:27:36.418Z,62.70
2022-12-22T16:30:38.546Z,63.20
2022-12-22T16:33:39.819Z,62.20
2022-12-22T16:36:41.070Z,63.00
2022-12-22T16:39:42.483Z,62.70
2022-12-22T16:46:05.569Z,62.90
2022-12-22T16:49:07.838Z,62.80
2022-12-22T16:52:15.142Z,62.80
2022-12-22T16:55:17.448Z,63.20
2022-12-22T16:58:20.378Z,63.00
2022-12-22T17:01:29.589Z,62.90
2022-12-22T17:04:31.611Z,63.10
2022-12-22T17:07:33.144Z,63.40
2022-12-22T17:10:34.773Z,62.90
2022-12-22T17:13:36.703Z,63.40
2022-12-22T17:16:38.195Z,63.30
2022-12-22T17:19:39.486Z,63.90
2022-12-22T17:22:42.668Z,63.20
2022-12-22T17:25:43.937Z,63.60
2022-12-22T17:28:46.686Z,63.50
2022-12-22T17:31:48.951Z,63.10
2022-12-22T17:34:50.313Z,63.00
2022-12-22T17:37:52.421Z,64.10
2022-12-22T17:40:56.116Z,63.50
2022-12-22T17:43:57.919Z,64.10
2022-12-22T17:46:59.429Z,63.60
2022-12-22T17:50:00.786Z,64.20
2022-12-22T17:53:02.801Z,63.70
2022-12-22T17:56:09.014Z,64.20
2022-12-22T17:59:11.504Z,63.80
2022-12-22T18:02:15.669Z,64.30
2022-12-22T18:05:18.100Z,63.90
2022-12-22T18:08:20.252Z,64.30
2022-12-22T18:11:21.615Z,64.20
2022-12-22T18:14:23.519Z,64.70
2022-12-22T18:17:28.618Z,64.30
2022-12-22T18:20:34.539Z,64.50
2022-12-22T18:23:36.697Z,64.10
2022-12-22T18:26:38.063Z,64.50
2022-12-22T18:29:40.062Z,64.30
2022-12-22T18:32:41.316Z,64.80
2022-12-22T18:35:42.893Z,63.80
2022-12-22T18:38:44.853Z,64.70
2022-12-22T18:41:46.130Z,64.40
2022-12-22T18:44:47.928Z,65.00
2022-12-22T18:47:49.475Z,64.50
2022-12-22T18:50:50.779Z,65.00
2022-12-22T18:53:53.108Z,64.20
2022-12-22T18:56:56.408Z,64.60
2022-12-22T18:59:58.407Z,64.80
2022-12-22T19:03:00.818Z,65.00
2022-12-22T19:06:02.219Z,64.70
2022-12-22T19:09:03.564Z,64.50
2022-12-22T19:12:05.002Z,64.60
2022-12-22T19:15:15.500Z,64.80
2022-12-22T19:18:24.309Z,64.50
2022-12-22T19:21:27.735Z,65.10
2022-12-22T19:24:28.961Z,64.70
2022-12-22T19:27:31.648Z,65.10
2022-12-22T19:30:33.628Z,65.00
2022-12-22T19:33:36.594Z,64.20
2022-12-22T19:36:37.958Z,64.70
2022-12-22T19:39:39.303Z,65.20
2022-12-22T19:42:41.187Z,64.60
2022-12-22T19:45:43.277Z,65.10
2022-12-22T19:48:46.653Z,65.20
2022-12-22T19:51:48.139Z,64.80
2022-12-22T19:54:49.399Z,64.20
2022-12-22T19:57:51.318Z,65.00
2022-12-22T20:00:53.927Z,65.00
2022-12-22T20:03:55.604Z,64.80
2022-12-22T20:06:56.995Z,64.40
2022-12-22T20:09:58.237Z,64.90
2022-12-22T20:13:01.166Z,65.00
2022-12-22T20:16:03.559Z,64.80
2022-12-22T20:19:05.378Z,65.00
2022-12-22T20:22:06.713Z,65.10
2022-12-22T20:25:12.500Z,65.30
2022-12-22T20:28:16.244Z,64.60
2022-12-22T20:31:19.126Z,64.90
2022-12-22T20:34:20.457Z,64.40
2022-12-22T20:37:21.715Z,65.20
2022-12-22T20:40:23.909Z,65.00
2022-12-22T20:43:26.662Z,65.10
2022-12-22T20:46:29.103Z,65.40
2022-12-22T20:49:32.124Z,65.20
2022-12-22T20:52:33.384Z,65.00
2022-12-22T20:55:34.637Z,65.30
2022-12-22T20:58:35.933Z,65.70
2022-12-22T21:01:38.035Z,65.20
2022-12-22T21:04:39.468Z,64.90
2022-12-22T21:07:41.269Z,64.90
2022-12-22T21:10:43.620Z,65.10
2022-12-22T21:13:44.939Z,65.10
2022-12-22T21:16:47.924Z,65.20
2022-12-22T21:19:49.607Z,65.20
2022-12-22T21:22:50.930Z,65.60
2022-12-22T21:25:52.578Z,65.60
2022-12-22T21:28:53.893Z,64.90
2022-12-22T21:31:56.009Z,65.40
2022-12-22T21:35:02.600Z,64.60
2022-12-22T21:38:14.238Z,65.50
2022-12-22T21:41:15.610Z,65.40
2022-12-22T21:44:16.890Z,65.30
2022-12-22T21:47:19.908Z,65.30
2022-12-22T21:50:22.518Z,65.40
2022-12-22T21:53:23.914Z,65.00
2022-12-22T21:56:25.257Z,65.40
2022-12-22T21:59:26.650Z,65.70
2022-12-22T22:02:28.553Z,65.60
2022-12-22T22:05:31.123Z,65.50
2022-12-22T22:08:32.518Z,65.00
2022-12-22T22:11:54.302Z,65.60
2022-12-22T22:14:55.603Z,65.20
2022-12-22T22:18:01.284Z,65.90
2022-12-22T22:21:08.165Z,65.20
2022-12-22T22:24:09.542Z,65.20
2022-12-22T22:27:10.997Z,65.00
2022-12-22T22:30:13.832Z,65.50
2022-12-22T22:33:15.642Z,65.30
2022-12-22T22:36:16.955Z,64.70
2022-12-22T22:39:18.176Z,65.20
2022-12-22T22:42:19.441Z,65.20
2022-12-22T22:45:22.872Z,65.40
2022-12-22T22:48:24.731Z,65.70
2022-12-22T22:51:26.132Z,65.60
2022-12-22T22:54:27.424Z,65.60
2022-12-22T22:57:28.763Z,65.60
2022-12-22T23:00:30.044Z,65.50
2022-12-22T23:03:32.259Z,65.70
2022-12-22T23:06:34.087Z,65.30
2022-12-22T23:09:35.565Z,65.20
2022-12-22T23:12:37.326Z,65.80
2022-12-22T23:15:38.687Z,65.50
2022-12-22T23:18:41.595Z,65.40
2022-12-22T23:21:44.163Z,65.70
2022-12-22T23:24:45.388Z,65.40
2022-12-22T23:27:46.733Z,65.60
2022-12-22T23:30:48.744Z,65.40
2022-12-22T23:33:50.659Z,64.80
2022-12-22T23:36:51.909Z,65.30
2022-12-22T23:39:53.311Z,65.40
2022-12-22T23:42:56.994Z,66.10
2022-12-22T23:45:58.658Z,65.90
2022-12-22T23:49:00.505Z,65.70
2022-12-22T23:52:02.046Z,65.60
2022-12-22T23:55:03.566Z,65.50
2022-12-22T23:58:04.887Z,65.70
